Time;durP1;ratioP1;P1;durP2;ratioP2;P2;SDS_P1;SDS_P2;PMS_P1;PMS_P2;Temp;Humidity;BMP_temperature;BMP_pressure;BME280_temperature;BME280_humidity;BME280_pressure;Samples;Min_cycle;Max_cycle;Signal;HPM_P1;HPM_P2
2023/08/02 00:02:20;;;;;;;3.65;1.98;;;21.70;73.30;;;;;;4978799;28;20046;-69
2023/08/02 00:04:46;;;;;;;4.18;2.20;;;21.70;73.40;;;;;;4978762;28;20461;-68
2023/08/02 00:07:12;;;;;;;4.63;2.13;;;21.70;73.60;;;;;;4978599;28;20078;-69
2023/08/02 00:09:38;;;;;;;3.05;2.30;;;21.70;73.80;;;;;;4978357;28;20054;-70
2023/08/02 00:12:04;;;;;;;3.53;2.50;;;21.70;74.10;;;;;;4979144;28;20035;-67
2023/08/02 00:14:31;;;;;;;2.65;2.30;;;21.60;74.30;;;;;;4978570;28;20382;-67
2023/08/02 00:16:57;;;;;;;3.90;2.40;;;21.60;74.50;;;;;;4978477;28;20027;-67
2023/08/02 00:19:23;;;;;;;3.13;2.40;;;21.60;74.50;;;;;;4978536;28;20106;-67
2023/08/02 00:21:49;;;;;;;3.17;2.08;;;21.60;74.30;;;;;;4978400;28;20038;-69
2023/08/02 00:24:15;;;;;;;3.53;2.20;;;21.70;74.00;;;;;;4978581;28;20031;-68
2023/08/02 00:26:41;;;;;;;2.97;2.00;;;21.70;73.40;;;;;;4978346;28;20035;-70
2023/08/02 00:29:07;;;;;;;2.10;1.90;;;21.70;72.60;;;;;;4978166;28;20027;-69
2023/08/02 00:31:33;;;;;;;2.33;1.70;;;21.80;71.70;;;;;;4978541;28;20356;-70
2023/08/02 00:33:59;;;;;;;2.70;1.60;;;21.80;71.30;;;;;;4978493;28;20509;-69
2023/08/02 00:36:25;;;;;;;3.47;1.48;;;21.80;71.00;;;;;;4978428;28;20054;-67
2023/08/02 00:38:51;;;;;;;2.10;1.45;;;21.90;70.60;;;;;;4977071;28;20078;-70
2023/08/02 00:41:17;;;;;;;2.13;1.80;;;21.90;70.50;;;;;;4978309;28;20034;-68
2023/08/02 00:43:45;;;;;;;1.95;1.58;;;21.90;70.00;;;;;;4977985;28;20029;-68
2023/08/02 00:46:14;;;;;;;2.22;1.60;;;21.90;70.20;;;;;;4978258;28;20082;-67
2023/08/02 00:48:41;;;;;;;2.50;1.60;;;21.90;70.30;;;;;;4978053;28;20026;-70
2023/08/02 00:51:12;;;;;;;3.25;1.52;;;21.90;70.30;;;;;;4978431;28;20034;-70
2023/08/02 00:53:39;;;;;;;1.70;1.52;;;21.90;70.20;;;;;;4978171;28;20089;-68
2023/08/02 00:56:05;;;;;;;3.50;1.63;;;21.90;70.20;;;;;;4978040;28;20095;-71
2023/08/02 00:58:32;;;;;;;3.00;1.48;;;21.90;70.10;;;;;;4977695;28;20030;-70
2023/08/02 01:01:08;;;;;;;2.70;1.70;;;21.90;70.00;;;;;;4977707;28;20035;-68
2023/08/02 01:03:38;;;;;;;1.92;1.33;;;21.90;69.80;;;;;;4977977;28;20022;-70
2023/08/02 01:06:18;;;;;;;3.50;1.60;;;21.90;69.50;;;;;;4978125;28;20030;-69
2023/08/02 01:08:49;;;;;;;2.25;1.40;;;21.90;69.30;;;;;;4976912;28;20074;-68
2023/08/02 01:11:26;;;;;;;1.92;1.70;;;21.90;69.40;;;;;;4977802;28;20038;-68
2023/08/02 01:13:55;;;;;;;2.20;1.48;;;21.90;69.80;;;;;;4977789;28;20425;-67
2023/08/02 01:16:24;;;;;;;3.38;1.80;;;21.90;70.00;;;;;;4977417;28;20103;-68
2023/08/02 01:18:50;;;;;;;3.67;1.80;;;21.80;70.20;;;;;;4976679;28;20086;-68
2023/08/02 01:21:16;;;;;;;1.48;1.38;;;21.80;70.30;;;;;;4977578;28;20430;-68
2023/08/02 01:23:43;;;;;;;2.38;1.40;;;21.80;70.40;;;;;;4977285;28;20487;-69
2023/08/02 01:26:11;;;;;;;1.95;1.70;;;21.80;70.60;;;;;;4977177;28;20045;-69
2023/08/02 01:28:41;;;;;;;1.50;1.40;;;21.70;70.80;;;;;;4977356;28;20034;-69
2023/08/02 01:31:09;;;;;;;1.58;1.48;;;21.80;70.90;;;;;;4977142;28;20453;-67
2023/08/02 01:33:55;;;;;;;1.40;1.30;;;21.80;71.00;;;;;;4977121;28;20026;-67
2023/08/02 01:36:21;;;;;;;1.95;1.27;;;21.70;71.00;;;;;;4977355;28;20440;-69
2023/08/02 01:38:47;;;;;;;1.40;1.30;;;21.70;71.20;;;;;;4976942;28;20026;-68
2023/08/02 01:41:13;;;;;;;1.35;1.25;;;21.70;71.40;;;;;;4976998;28;20033;-68
2023/08/02 01:43:40;;;;;;;1.45;1.35;;;21.70;71.70;;;;;;4975956;28;20027;-67
2023/08/02 01:46:06;;;;;;;2.85;2.22;;;21.70;71.70;;;;;;4976901;28;20023;-68
2023/08/02 01:48:32;;;;;;;3.88;2.20;;;21.70;72.10;;;;;;4976789;28;20030;-70
2023/08/02 01:50:58;;;;;;;2.58;2.25;;;21.70;72.20;;;;;;4976756;28;20023;-70
2023/08/02 01:53:24;;;;;;;3.65;2.60;;;21.70;72.40;;;;;;4977079;28;20077;-68
2023/08/02 01:55:50;;;;;;;5.45;3.05;;;21.70;72.40;;;;;;4977315;28;20448;-70
2023/08/02 01:58:16;;;;;;;3.10;2.60;;;21.70;72.60;;;;;;4976835;28;20066;-68
2023/08/02 02:00:42;;;;;;;4.68;2.80;;;21.70;73.00;;;;;;4976668;28;20030;-70
2023/08/02 02:03:07;;;;;;;4.70;2.90;;;21.70;73.20;;;;;;4976671;28;20023;-70
2023/08/02 02:05:33;;;;;;;3.25;2.72;;;21.70;73.40;;;;;;4976864;28;20023;-70
2023/08/02 02:07:59;;;;;;;5.78;3.10;;;21.70;73.30;;;;;;4975264;28;20054;-70
2023/08/02 02:10:26;;;;;;;3.67;2.70;;;21.70;73.50;;;;;;4977004;28;20026;-68
2023/08/02 02:12:52;;;;;;;4.80;2.80;;;21.60;73.80;;;;;;4976513;28;20030;-70
2023/08/02 02:15:18;;;;;;;4.78;2.95;;;21.60;73.80;;;;;;4976751;28;20389;-68
2023/08/02 02:17:44;;;;;;;3.20;2.40;;;21.60;74.30;;;;;;4976646;28;20026;-71
2023/08/02 02:20:10;;;;;;;3.70;2.50;;;21.50;74.20;;;;;;4976039;28;20029;-69
2023/08/02 02:22:36;;;;;;;3.55;2.55;;;21.60;74.20;;;;;;4976919;28;20035;-68
2023/08/02 02:25:02;;;;;;;2.85;2.55;;;21.50;74.20;;;;;;4976355;28;20034;-70
2023/08/02 02:27:28;;;;;;;3.10;2.42;;;21.60;74.30;;;;;;4976330;28;20382;-67
2023/08/02 02:29:54;;;;;;;3.75;2.80;;;21.50;74.20;;;;;;4976256;28;20441;-69
2023/08/02 02:32:20;;;;;;;3.42;2.80;;;21.50;74.30;;;;;;4976308;28;20027;-70
2023/08/02 02:34:46;;;;;;;3.80;2.80;;;21.50;74.30;;;;;;4976826;28;20075;-68
2023/08/02 02:37:12;;;;;;;2.55;2.30;;;21.50;74.30;;;;;;4976224;28;20397;-70
2023/08/02 02:39:38;;;;;;;2.40;2.20;;;21.50;74.40;;;;;;4976521;28;20097;-69
2023/08/02 02:42:04;;;;;;;3.45;2.60;;;21.60;74.60;;;;;;4976455;28;20033;-67
2023/08/02 02:44:43;;;;;;;2.60;2.40;;;21.60;74.60;;;;;;4976152;28;20031;-69
2023/08/02 02:47:10;;;;;;;3.65;2.20;;;21.70;74.70;;;;;;4976063;28;20339;-70
2023/08/02 02:49:36;;;;;;;2.60;2.40;;;21.80;74.60;;;;;;4976334;28;20054;-69
2023/08/02 02:52:03;;;;;;;2.80;2.30;;;21.80;74.60;;;;;;4975201;28;20027;-70
2023/08/02 02:54:29;;;;;;;3.15;2.20;;;21.80;74.40;;;;;;4976382;28;20019;-68
2023/08/02 02:56:55;;;;;;;2.45;2.20;;;21.80;74.30;;;;;;4976551;28;20101;-69
2023/08/02 02:59:21;;;;;;;2.75;2.10;;;21.80;74.20;;;;;;4976320;28;20030;-70
2023/08/02 03:01:47;;;;;;;4.38;2.00;;;21.80;74.10;;;;;;4976331;28;20022;-71
2023/08/02 03:04:13;;;;;;;2.85;1.98;;;21.70;73.90;;;;;;4976083;28;20077;-68
2023/08/02 03:06:39;;;;;;;2.17;1.80;;;21.70;73.80;;;;;;4976038;28;20353;-71
2023/08/02 03:09:05;;;;;;;5.20;1.70;;;21.70;72.90;;;;;;4974648;28;20151;-69
2023/08/02 03:11:31;;;;;;;7.35;1.90;;;21.60;72.20;;;;;;4976247;28;20464;-70
2023/08/02 03:13:56;;;;;;;1.60;1.50;;;21.60;71.80;;;;;;4976250;28;20034;-68
2023/08/02 03:16:22;;;;;;;2.63;1.85;;;21.50;72.00;;;;;;4975946;28;20027;-68
2023/08/02 03:18:49;;;;;;;4.20;1.90;;;21.50;72.30;;;;;;4975917;28;20023;-68
2023/08/02 03:21:15;;;;;;;2.72;1.70;;;21.40;72.30;;;;;;4976143;28;20102;-69
2023/08/02 03:23:42;;;;;;;2.30;1.67;;;21.40;72.30;;;;;;4975915;28;20031;-70
2023/08/02 03:26:08;;;;;;;2.25;1.80;;;21.40;72.10;;;;;;4976372;28;20417;-69
2023/08/02 03:28:34;;;;;;;2.85;1.70;;;21.40;72.10;;;;;;4975767;28;20086;-69
2023/08/02 03:31:00;;;;;;;2.05;1.50;;;21.40;71.80;;;;;;4975736;28;20054;-69
2023/08/02 03:33:26;;;;;;;2.13;1.63;;;21.40;71.30;;;;;;4979079;28;20437;-67
2023/08/02 03:35:51;;;;;;;2.55;1.60;;;21.40;70.80;;;;;;4979327;28;20110;-68
2023/08/02 03:38:17;;;;;;;2.20;1.75;;;21.40;70.40;;;;;;4979235;28;20433;-70
2023/08/02 03:40:43;;;;;;;1.77;1.48;;;21.40;70.50;;;;;;4979204;28;20039;-69
2023/08/02 03:43:09;;;;;;;2.92;1.80;;;21.30;70.30;;;;;;4978212;28;20110;-69
2023/08/02 03:45:35;;;;;;;2.38;1.73;;;21.20;70.80;;;;;;4978295;28;20126;-68
2023/08/02 03:48:02;;;;;;;3.03;1.70;;;21.20;71.50;;;;;;4979566;28;20030;-68
2023/08/02 03:50:28;;;;;;;2.25;1.92;;;21.10;71.70;;;;;;4979228;28;20059;-68
2023/08/02 03:52:54;;;;;;;2.10;1.80;;;21.10;72.00;;;;;;4979448;28;20387;-68
2023/08/02 03:55:20;;;;;;;3.63;1.80;;;21.00;72.40;;;;;;4978942;28;20031;-69
2023/08/02 03:57:46;;;;;;;2.80;2.20;;;21.00;72.70;;;;;;4978835;28;20023;-69
2023/08/02 04:00:12;;;;;;;2.58;1.75;;;20.90;72.80;;;;;;4979114;28;20085;-70
2023/08/02 04:02:38;;;;;;;2.85;1.77;;;21.00;72.80;;;;;;4979067;28;20031;-70
2023/08/02 04:05:04;;;;;;;4.53;1.58;;;20.90;72.40;;;;;;4978791;28;20412;-68
2023/08/02 04:07:30;;;;;;;1.63;1.35;;;20.90;71.30;;;;;;4978664;28;20050;-71
2023/08/02 04:09:56;;;;;;;3.35;1.45;;;20.90;70.60;;;;;;4978451;28;20051;-70
2023/08/02 04:12:22;;;;;;;2.08;1.25;;;21.00;70.00;;;;;;4978631;28;20038;-70
2023/08/02 04:14:49;;;;;;;1.42;1.10;;;21.00;69.40;;;;;;4978589;28;20027;-69
2023/08/02 04:17:15;;;;;;;1.20;1.10;;;21.00;69.20;;;;;;4978486;28;20089;-68
2023/08/02 04:19:40;;;;;;;1.83;1.30;;;21.00;69.40;;;;;;4978532;28;20134;-68
2023/08/02 04:22:06;;;;;;;1.40;1.30;;;21.00;69.50;;;;;;4978724;28;20023;-68
2023/08/02 04:24:33;;;;;;;1.95;1.35;;;20.90;69.60;;;;;;4978393;28;20453;-68
2023/08/02 04:26:59;;;;;;;1.77;1.25;;;20.90;69.60;;;;;;4978301;28;20027;-68
2023/08/02 04:29:25;;;;;;;2.50;1.20;;;20.90;69.80;;;;;;4978229;28;20445;-69
2023/08/02 04:31:51;;;;;;;3.42;1.38;;;21.00;69.80;;;;;;4977896;28;20346;-69
2023/08/02 04:34:17;;;;;;;3.83;1.30;;;21.00;70.00;;;;;;4978260;28;20082;-68
2023/08/02 04:36:43;;;;;;;2.33;1.42;;;21.00;69.80;;;;;;4978226;28;20065;-69
2023/08/02 04:39:10;;;;;;;1.80;1.30;;;21.10;69.40;;;;;;4978064;28;20034;-70
2023/08/02 04:41:37;;;;;;;2.22;1.10;;;21.10;69.40;;;;;;4978320;28;20030;-68
2023/08/02 04:44:03;;;;;;;1.25;1.10;;;21.20;68.90;;;;;;4977892;28;20109;-68
2023/08/02 04:46:29;;;;;;;3.85;1.30;;;21.30;69.00;;;;;;4978505;28;20034;-67
2023/08/02 04:48:56;;;;;;;1.80;0.90;;;21.30;68.80;;;;;;4977923;28;20356;-67
2023/08/02 04:51:22;;;;;;;1.75;1.10;;;21.70;68.40;;;;;;4977977;28;20334;-68
2023/08/02 04:53:48;;;;;;;2.72;1.33;;;22.30;66.60;;;;;;4978650;28;20038;-68
2023/08/02 04:56:15;;;;;;;3.33;1.20;;;22.80;65.00;;;;;;4977842;28;20083;-69
2023/08/02 04:58:41;;;;;;;1.20;1.10;;;23.20;63.60;;;;;;4977957;28;20037;-68
2023/08/02 05:01:08;;;;;;;3.22;1.10;;;23.30;62.80;;;;;;4978046;28;20027;-69
2023/08/02 05:03:34;;;;;;;1.17;1.10;;;23.10;63.40;;;;;;4978223;28;20035;-69
2023/08/02 05:06:02;;;;;;;1.52;1.17;;;22.90;63.80;;;;;;4977913;28;20030;-70
2023/08/02 05:08:31;;;;;;;1.63;1.35;;;22.60;64.70;;;;;;4977275;28;20093;-70
2023/08/02 05:10:57;;;;;;;1.52;1.00;;;22.50;65.30;;;;;;4977476;28;20075;-67
2023/08/02 05:13:27;;;;;;;2.53;1.35;;;22.30;65.70;;;;;;4977449;28;20074;-68
2023/08/02 05:15:55;;;;;;;1.52;1.38;;;22.40;66.00;;;;;;4976480;28;20022;-70
2023/08/02 05:18:21;;;;;;;1.25;1.05;;;22.90;65.80;;;;;;4977604;28;20031;-68
2023/08/02 05:20:47;;;;;;;4.03;1.33;;;23.30;64.30;;;;;;4977900;28;20468;-69
2023/08/02 05:23:13;;;;;;;3.22;1.08;;;23.30;63.80;;;;;;4977364;28;20449;-68
2023/08/02 05:25:41;;;;;;;1.25;1.10;;;23.20;62.70;;;;;;4977338;28;20023;-68
2023/08/02 05:28:07;;;;;;;2.38;1.30;;;23.50;62.60;;;;;;4977377;28;20026;-70
2023/08/02 05:30:35;;;;;;;3.28;1.38;;;24.00;61.60;;;;;;4977641;28;20349;-70
2023/08/02 05:33:02;;;;;;;3.55;1.23;;;24.10;60.60;;;;;;4977122;28;20046;-67
2023/08/02 05:35:29;;;;;;;2.50;1.42;;;24.20;60.90;;;;;;4977119;28;20027;-71
2023/08/02 05:37:56;;;;;;;1.25;1.13;;;24.40;60.80;;;;;;4976953;28;20085;-66
2023/08/02 05:40:22;;;;;;;3.00;1.40;;;24.90;60.40;;;;;;4977246;28;20027;-69
2023/08/02 05:42:49;;;;;;;8.55;1.60;;;25.90;58.80;;;;;;4977033;28;20030;-68
2023/08/02 05:45:15;;;;;;;4.45;1.58;;;26.90;56.60;;;;;;4977176;28;20046;-67
2023/08/02 05:47:42;;;;;;;4.68;1.60;;;27.70;54.20;;;;;;4976978;28;20030;-67
2023/08/02 05:50:08;;;;;;;1.50;1.33;;;28.40;53.00;;;;;;4976762;28;20035;-67
2023/08/02 05:52:34;;;;;;;1.92;1.38;;;29.20;50.00;;;;;;4976762;28;20105;-69
2023/08/02 05:55:00;;;;;;;3.78;1.30;;;29.80;48.50;;;;;;4975036;28;20433;-68
2023/08/02 05:57:26;;;;;;;3.97;1.58;;;30.30;47.30;;;;;;4976921;28;20154;-68
2023/08/02 05:59:52;;;;;;;2.80;1.45;;;30.70;46.60;;;;;;4976706;28;20066;-67
2023/08/02 06:02:18;;;;;;;3.85;1.50;;;31.30;45.90;;;;;;4976433;28;20033;-69
2023/08/02 06:04:45;;;;;;;1.27;1.17;;;31.60;44.30;;;;;;4976869;28;20034;-70
2023/08/02 06:07:12;;;;;;;3.80;1.30;;;31.30;43.80;;;;;;4976434;28;20022;-70
2023/08/02 06:09:41;;;;;;;1.98;1.25;;;30.50;44.20;;;;;;4976272;28;20047;-70
2023/08/02 06:12:10;;;;;;;3.08;1.58;;;29.40;46.10;;;;;;4976404;28;20046;-70
2023/08/02 06:14:36;;;;;;;47.15;11.65;;;28.60;47.50;;;;;;4976414;28;20472;-72
2023/08/02 06:17:02;;;;;;;4.85;2.15;;;27.90;49.00;;;;;;4976320;28;20464;-70
2023/08/02 06:19:30;;;;;;;3.25;1.60;;;27.20;50.50;;;;;;4976344;28;20050;-70
2023/08/02 06:21:56;;;;;;;2.60;1.30;;;26.80;51.60;;;;;;4976394;28;20065;-71
2023/08/02 06:24:23;;;;;;;3.30;1.40;;;26.40;52.60;;;;;;4976256;28;20027;-69
2023/08/02 06:26:49;;;;;;;1.83;1.20;;;26.10;53.50;;;;;;4976601;28;20026;-69
2023/08/02 06:29:15;;;;;;;1.30;1.20;;;25.90;53.80;;;;;;4975250;28;20026;-71
2023/08/02 06:31:41;;;;;;;1.55;1.40;;;25.80;54.10;;;;;;4976223;28;20026;-70
2023/08/02 06:34:07;;;;;;;1.92;1.20;;;25.70;54.30;;;;;;4976283;28;20034;-69
2023/08/02 06:36:34;;;;;;;2.53;1.27;;;25.70;54.70;;;;;;4973182;28;20445;-71
2023/08/02 06:39:00;;;;;;;2.20;1.67;;;25.60;55.10;;;;;;4976019;28;20453;-71
2023/08/02 06:41:26;;;;;;;1.65;1.50;;;25.50;55.00;;;;;;4976196;28;20073;-71
2023/08/02 06:43:52;;;;;;;3.28;1.70;;;25.40;55.30;;;;;;4976392;28;20027;-70
2023/08/02 06:46:18;;;;;;;3.05;1.55;;;25.10;55.40;;;;;;4976172;28;20041;-70
2023/08/02 06:48:44;;;;;;;1.73;1.50;;;25.00;56.10;;;;;;4976043;28;20113;-71
2023/08/02 06:51:13;;;;;;;2.22;1.40;;;24.90;56.30;;;;;;4976582;28;20418;-70
2023/08/02 06:53:40;;;;;;;2.22;1.33;;;24.90;56.50;;;;;;4975132;28;20034;-69
2023/08/02 06:56:16;;;;;;;1.55;1.23;;;24.90;56.40;;;;;;4976075;28;20453;-70
2023/08/02 06:58:43;;;;;;;1.33;1.23;;;24.80;56.10;;;;;;4975957;28;20349;-70
2023/08/02 07:01:17;;;;;;;2.88;1.50;;;24.70;56.90;;;;;;4975961;28;20453;-70
2023/08/02 07:03:45;;;;;;;1.92;1.30;;;24.70;57.00;;;;;;4976529;28;20360;-71
2023/08/02 07:06:13;;;;;;;2.92;1.50;;;24.70;57.60;;;;;;4972838;28;20031;-71
2023/08/02 07:08:40;;;;;;;3.45;1.85;;;24.70;58.10;;;;;;4979401;28;20106;-70
2023/08/02 07:11:06;;;;;;;3.17;1.55;;;24.70;58.00;;;;;;4979883;28;20545;-69
2023/08/02 07:13:35;;;;;;;4.20;1.63;;;24.80;57.60;;;;;;4979675;28;20036;-70
2023/08/02 07:16:01;;;;;;;2.85;1.50;;;24.80;57.50;;;;;;4979583;28;20508;-71
2023/08/02 07:18:27;;;;;;;2.80;1.38;;;24.90;57.60;;;;;;4979507;28;20026;-70
2023/08/02 07:20:54;;;;;;;2.08;1.50;;;25.00;56.80;;;;;;4980006;28;20433;-71
2023/08/02 07:23:21;;;;;;;1.92;1.20;;;25.10;56.70;;;;;;4979740;28;20023;-70
2023/08/02 07:25:47;;;;;;;2.30;1.70;;;25.30;56.80;;;;;;4979412;28;20065;-71
2023/08/02 07:28:13;;;;;;;3.70;1.80;;;25.60;56.60;;;;;;4978296;28;20042;-70
2023/08/02 07:30:39;;;;;;;3.47;1.67;;;26.00;55.80;;;;;;4978398;28;20086;-71
2023/08/02 07:33:05;;;;;;;1.45;1.30;;;26.20;54.90;;;;;;4979805;28;20023;-70
2023/08/02 07:35:36;;;;;;;1.88;1.67;;;26.40;54.00;;;;;;4979291;28;20221;-70
2023/08/02 07:38:02;;;;;;;3.33;1.50;;;26.50;53.70;;;;;;4961671;28;20031;-70
2023/08/02 07:40:28;;;;;;;4.10;1.38;;;26.60;53.40;;;;;;4958609;29;20042;-69
2023/08/02 07:42:54;;;;;;;2.03;1.52;;;26.80;53.60;;;;;;4957793;28;20031;-69
2023/08/02 07:45:20;;;;;;;1.83;1.40;;;26.90;51.90;;;;;;4957748;28;20070;-69
2023/08/02 07:47:46;;;;;;;2.60;1.48;;;27.10;51.90;;;;;;4957641;28;20034;-68
2023/08/02 07:50:11;;;;;;;2.38;1.48;;;27.20;51.70;;;;;;4957568;28;20102;-68
2023/08/02 07:52:37;;;;;;;2.17;1.38;;;27.40;51.90;;;;;;4957564;28;20038;-68
2023/08/02 07:55:03;;;;;;;2.30;1.40;;;27.60;52.00;;;;;;4957547;28;20098;-68
2023/08/02 07:57:34;;;;;;;1.42;1.33;;;27.80;51.50;;;;;;4957734;28;20512;-68
2023/08/02 08:00:01;;;;;;;2.60;1.60;;;28.10;51.20;;;;;;4958934;28;20046;-72
2023/08/02 08:02:27;;;;;;;2.47;1.45;;;28.40;50.60;;;;;;4959917;28;20027;-70
2023/08/02 08:04:54;;;;;;;1.50;1.40;;;28.60;50.10;;;;;;4959392;28;20036;-69
2023/08/02 08:07:21;;;;;;;1.55;1.25;;;28.70;48.50;;;;;;4958407;28;20031;-69
2023/08/02 08:09:53;;;;;;;1.98;1.17;;;28.80;49.20;;;;;;4958935;28;20051;-68
2023/08/02 08:12:20;;;;;;;1.33;1.23;;;28.90;48.80;;;;;;4959781;28;20457;-69
2023/08/02 08:14:46;;;;;;;1.83;1.52;;;28.90;47.00;;;;;;4959440;28;20023;-68
2023/08/02 08:17:11;;;;;;;2.03;1.45;;;28.70;47.80;;;;;;4959120;28;20015;-68
2023/08/02 08:19:38;;;;;;;3.85;1.63;;;28.40;48.40;;;;;;4958291;28;20082;-69
2023/08/02 08:22:05;;;;;;;4.57;2.70;;;28.20;49.10;;;;;;4974208;28;20047;-69
2023/08/02 08:24:30;;;;;;;4.68;3.08;;;28.00;49.10;;;;;;4958977;28;20114;-69
2023/08/02 08:26:57;;;;;;;4.97;2.47;;;27.90;49.90;;;;;;4959431;28;20110;-69
2023/08/02 08:29:23;;;;;;;3.40;2.17;;;27.90;50.20;;;;;;4959314;29;20501;-68
2023/08/02 08:31:48;;;;;;;2.80;1.73;;;27.90;50.30;;;;;;4959420;28;20403;-69
2023/08/02 08:34:17;;;;;;;2.97;1.77;;;27.90;50.50;;;;;;4958887;28;20094;-69
2023/08/02 08:36:43;;;;;;;2.47;1.90;;;27.80;50.80;;;;;;4959322;28;20023;-69
2023/08/02 08:39:09;;;;;;;2.97;2.00;;;27.90;51.00;;;;;;4973785;28;20023;-69
2023/08/02 08:41:35;;;;;;;3.15;1.90;;;28.00;50.40;;;;;;4958531;28;20015;-69
2023/08/02 08:44:05;;;;;;;2.33;2.03;;;28.10;50.00;;;;;;4954578;28;20059;-68
2023/08/02 08:46:32;;;;;;;1.58;1.35;;;28.00;49.90;;;;;;4958611;28;20170;-68
2023/08/02 08:49:02;;;;;;;2.47;1.63;;;28.10;50.20;;;;;;4958253;28;20055;-68
2023/08/02 08:51:33;;;;;;;2.47;1.58;;;28.10;50.20;;;;;;4958807;28;20029;-70
2023/08/02 08:54:08;;;;;;;4.50;2.10;;;28.30;49.80;;;;;;4958678;28;20027;-69
2023/08/02 08:56:40;;;;;;;1.90;1.58;;;28.40;50.00;;;;;;4957392;29;20038;-70
2023/08/02 08:59:08;;;;;;;2.83;1.80;;;28.70;49.80;;;;;;4956324;29;20027;-69
2023/08/02 09:01:39;;;;;;;2.42;1.58;;;28.90;48.70;;;;;;4958860;28;20027;-69
2023/08/02 09:04:06;;;;;;;2.05;1.85;;;29.10;48.50;;;;;;4958608;28;20027;-69
2023/08/02 09:06:35;;;;;;;2.28;1.60;;;29.40;48.60;;;;;;4958303;28;20493;-68
2023/08/02 09:09:02;;;;;;;2.45;1.55;;;29.50;48.40;;;;;;4957967;28;20050;-68
2023/08/02 09:11:28;;;;;;;2.55;1.83;;;29.40;47.20;;;;;;4958462;28;20023;-69
2023/08/02 09:14:15;;;;;;;3.63;1.63;;;29.30;47.80;;;;;;4958133;28;20023;-70
2023/08/02 09:16:57;;;;;;;2.70;1.40;;;29.30;48.30;;;;;;4958081;28;20027;-69
2023/08/02 09:19:29;;;;;;;2.25;1.50;;;29.40;48.10;;;;;;4958051;28;20438;-69
2023/08/02 09:22:14;;;;;;;2.42;1.50;;;29.40;47.10;;;;;;4958045;28;20023;-69
2023/08/02 09:24:45;;;;;;;3.05;1.40;;;29.30;46.50;;;;;;4957051;28;20035;-69
2023/08/02 09:27:17;;;;;;;3.15;1.70;;;29.40;47.80;;;;;;4958072;28;20114;-69
2023/08/02 09:29:48;;;;;;;1.45;1.35;;;29.50;47.50;;;;;;4957566;28;20028;-69
2023/08/02 09:32:15;;;;;;;1.30;1.20;;;29.50;47.20;;;;;;4957718;28;20386;-69
2023/08/02 09:34:43;;;;;;;1.55;1.30;;;29.50;46.80;;;;;;4957636;28;20038;-69
2023/08/02 09:37:11;;;;;;;2.88;1.42;;;29.50;46.40;;;;;;4957857;28;20027;-69
2023/08/02 09:42:13;;;;;;;1.17;1.08;;;29.70;46.70;;;;;;4958111;29;20035;-69
2023/08/02 09:45:01;;;;;;;1.60;1.27;;;29.80;46.60;;;;;;4957792;28;20031;-69
2023/08/02 09:47:28;;;;;;;2.45;1.60;;;29.80;45.20;;;;;;4957748;28;20074;-68
2023/08/02 09:50:10;;;;;;;2.08;1.65;;;29.70;46.90;;;;;;4957836;28;20035;-70
2023/08/02 09:52:39;;;;;;;3.20;2.08;;;29.80;47.30;;;;;;4957426;28;20095;-70
2023/08/02 09:55:09;;;;;;;4.28;1.85;;;29.80;47.70;;;;;;4957657;28;20023;-69
2023/08/02 09:57:37;;;;;;;3.20;2.00;;;29.70;46.90;;;;;;4957753;28;20042;-69
2023/08/02 10:00:08;;;;;;;3.65;1.75;;;29.50;47.80;;;;;;4957779;28;20058;-69
2023/08/02 10:02:36;;;;;;;2.33;1.90;;;29.40;47.50;;;;;;4957198;28;20365;-69
2023/08/02 10:05:04;;;;;;;3.58;1.67;;;29.30;47.90;;;;;;4957500;28;20039;-69
2023/08/02 10:07:52;;;;;;;3.15;1.90;;;29.10;47.50;;;;;;4956191;29;20055;-69
2023/08/02 10:10:24;;;;;;;2.67;1.60;;;28.90;48.00;;;;;;4972139;28;20058;-70
2023/08/02 10:13:08;;;;;;;2.08;1.58;;;29.00;48.80;;;;;;4958052;28;20118;-69
2023/08/02 10:15:35;;;;;;;2.38;1.70;;;29.10;48.50;;;;;;4957164;28;20055;-69
2023/08/02 10:18:02;;;;;;;2.65;1.60;;;29.20;48.60;;;;;;4957235;28;20114;-69
2023/08/02 10:20:31;;;;;;;5.70;1.92;;;29.30;48.10;;;;;;4957655;28;20058;-69
2023/08/02 10:23:08;;;;;;;2.60;1.55;;;29.40;48.60;;;;;;4957317;28;20361;-69
2023/08/02 10:25:36;;;;;;;2.53;1.75;;;29.40;48.30;;;;;;4957395;28;20023;-69
2023/08/02 10:28:03;;;;;;;3.05;1.45;;;29.20;48.00;;;;;;4957036;28;20039;-69
2023/08/02 10:30:30;;;;;;;3.30;2.00;;;29.00;47.50;;;;;;4957095;28;20042;-68
2023/08/02 10:33:14;;;;;;;2.17;1.60;;;29.00;48.20;;;;;;4956922;28;20027;-70
2023/08/02 10:36:01;;;;;;;1.83;1.33;;;29.00;48.90;;;;;;4957209;28;20031;-69
2023/08/02 10:38:48;;;;;;;2.40;1.55;;;29.20;48.70;;;;;;4956860;28;20513;-70
2023/08/02 10:41:21;;;;;;;2.22;1.70;;;29.30;47.60;;;;;;4956062;28;20051;-69
2023/08/02 10:44:08;;;;;;;3.67;2.05;;;29.30;47.30;;;;;;4960097;28;20039;-69
2023/08/02 10:46:35;;;;;;;1.70;1.58;;;29.30;46.80;;;;;;4960892;28;20031;-70
2023/08/02 10:49:13;;;;;;;2.55;1.73;;;29.30;47.50;;;;;;4960791;29;20106;-70
2023/08/02 10:51:42;;;;;;;3.60;1.88;;;29.30;46.40;;;;;;4960778;28;20118;-68
2023/08/02 10:54:25;;;;;;;2.97;2.05;;;29.20;47.20;;;;;;4960741;28;20094;-69
2023/08/02 10:56:51;;;;;;;2.83;2.00;;;29.10;46.60;;;;;;4959988;28;20069;-70
2023/08/02 10:59:36;;;;;;;2.25;1.88;;;29.00;47.00;;;;;;4960913;29;20024;-69
2023/08/02 11:02:07;;;;;;;3.05;1.83;;;28.80;47.00;;;;;;4961199;28;20054;-70
2023/08/02 11:04:37;;;;;;;2.50;1.80;;;28.80;47.90;;;;;;4959694;29;20031;-69
2023/08/02 11:07:22;;;;;;;2.58;2.10;;;28.90;48.10;;;;;;4960462;28;20038;-70
2023/08/02 11:09:54;;;;;;;3.22;2.17;;;29.20;47.60;;;;;;4960369;28;20070;-69
2023/08/02 11:12:22;;;;;;;6.20;2.30;;;29.20;48.30;;;;;;4959907;29;20112;-71
2023/08/02 11:14:52;;;;;;;5.97;2.50;;;29.30;48.20;;;;;;4960686;28;20438;-71
2023/08/02 11:17:22;;;;;;;5.28;2.38;;;29.40;48.30;;;;;;4960406;28;20043;-69
2023/08/02 11:19:53;;;;;;;5.10;2.83;;;29.40;48.40;;;;;;4959709;29;20031;-70
2023/08/02 11:22:19;;;;;;;7.00;2.80;;;29.40;48.40;;;;;;4960553;28;20055;-69
2023/08/02 11:24:56;;;;;;;5.82;2.90;;;29.50;48.60;;;;;;4960744;28;20516;-69
2023/08/02 11:27:24;;;;;;;4.88;2.85;;;29.60;48.60;;;;;;4960052;28;20361;-72
2023/08/02 11:30:01;;;;;;;5.72;2.78;;;29.60;48.80;;;;;;4960285;28;20106;-69
2023/08/02 11:32:28;;;;;;;4.88;2.70;;;29.70;49.10;;;;;;4960076;28;20361;-68
2023/08/02 11:34:54;;;;;;;5.72;3.15;;;29.90;49.20;;;;;;4960296;28;20188;-69
2023/08/02 11:37:21;;;;;;;4.15;2.65;;;30.00;48.90;;;;;;4959313;28;20023;-68
2023/08/02 11:39:53;;;;;;;6.22;3.25;;;30.20;48.80;;;;;;4959086;29;20020;-69
2023/08/02 11:42:20;;;;;;;6.13;3.03;;;30.20;48.40;;;;;;4959957;28;20035;-68
2023/08/02 11:44:47;;;;;;;5.68;2.72;;;30.10;48.80;;;;;;4959836;28;20073;-69
2023/08/02 11:47:13;;;;;;;3.92;2.90;;;30.00;49.00;;;;;;4960195;28;20050;-69
2023/08/02 11:49:48;;;;;;;5.70;3.00;;;30.00;49.20;;;;;;4960931;28;20426;-68
2023/08/02 11:52:24;;;;;;;5.78;3.00;;;30.00;49.50;;;;;;4960758;28;20039;-69
2023/08/02 11:54:51;;;;;;;6.18;2.92;;;30.10;49.30;;;;;;4960846;28;20027;-69
2023/08/02 11:57:18;;;;;;;5.00;2.90;;;30.30;49.20;;;;;;4959588;28;20041;-69
2023/08/02 11:59:46;;;;;;;8.60;2.92;;;30.30;49.20;;;;;;4960059;28;20034;-69
2023/08/02 12:02:30;;;;;;;5.55;2.70;;;30.40;48.80;;;;;;4959467;28;20031;-69
2023/08/02 12:04:57;;;;;;;4.35;2.53;;;30.40;48.50;;;;;;4958605;29;20026;-69
2023/08/02 12:07:29;;;;;;;5.53;3.00;;;30.40;49.00;;;;;;4959923;28;20039;-69
2023/08/02 12:09:56;;;;;;;6.15;3.28;;;30.60;49.40;;;;;;4974277;28;20052;-69
2023/08/02 12:12:28;;;;;;;7.70;3.60;;;30.60;49.50;;;;;;4959371;28;20473;-69
2023/08/02 12:14:55;;;;;;;4.90;3.28;;;30.40;49.90;;;;;;4959635;28;20023;-70
2023/08/02 12:17:22;;;;;;;3.92;2.90;;;30.20;49.90;;;;;;4974351;28;20354;-69
2023/08/02 12:19:49;;;;;;;6.18;3.10;;;30.00;50.20;;;;;;4959258;28;20035;-69
2023/08/02 12:22:16;;;;;;;5.85;3.00;;;30.00;50.40;;;;;;4959495;28;20058;-70
2023/08/02 12:24:42;;;;;;;6.80;3.10;;;30.00;50.50;;;;;;4958834;29;20078;-69
2023/08/02 12:27:19;;;;;;;4.90;3.10;;;30.10;50.60;;;;;;4958843;28;20019;-69
2023/08/02 12:29:47;;;;;;;7.22;3.35;;;30.20;50.90;;;;;;4959008;28;20027;-70
2023/08/02 12:32:27;;;;;;;6.35;3.05;;;30.30;50.60;;;;;;4958134;28;20100;-69
2023/08/02 12:34:53;;;;;;;4.60;3.03;;;30.40;50.50;;;;;;4959220;28;20039;-70
2023/08/02 12:37:19;;;;;;;7.53;3.50;;;30.50;50.40;;;;;;4957659;28;20496;-69
2023/08/02 12:39:45;;;;;;;4.90;3.03;;;30.60;50.30;;;;;;4958544;28;20060;-70
2023/08/02 12:42:11;;;;;;;6.72;3.40;;;30.50;50.40;;;;;;4959357;29;20031;-70
2023/08/02 12:44:37;;;;;;;6.15;3.45;;;30.60;50.50;;;;;;4959296;29;20062;-69
2023/08/02 12:47:03;;;;;;;6.03;3.00;;;30.70;50.60;;;;;;4958705;28;20030;-70
2023/08/02 12:49:29;;;;;;;5.53;3.10;;;30.70;50.60;;;;;;4973714;28;20035;-70
2023/08/02 12:51:55;;;;;;;6.03;3.40;;;30.70;50.40;;;;;;4959130;28;20025;-69
2023/08/02 12:54:21;;;;;;;9.98;3.97;;;30.70;50.30;;;;;;4958578;29;20023;-70
2023/08/02 12:56:47;;;;;;;5.20;3.28;;;30.70;50.50;;;;;;4958593;28;20019;-70